Time;durP1;ratioP1;P1;durP2;ratioP2;P2;SDS_P1;SDS_P2;PMS_P1;PMS_P2;Temp;Humidity;BMP_temperature;BMP_pressure;BME280_temperature;BME280_humidity;BME280_pressure;Samples;Min_cycle;Max_cycle;Signal;HPM_P1;HPM_P2
2023/04/05 00:01:32;;;;;;;2.30;1.80;;;;;;;-1.45;92.31;98916.08;105581;1262;74713;-26
2023/04/05 00:04:01;;;;;;;2.30;1.80;;;;;;;-1.12;91.52;98916.30;105489;1262;74192;-26
2023/04/05 00:06:30;;;;;;;2.50;2.20;;;;;;;-1.13;91.03;98917.70;105558;1258;61129;-26
2023/04/05 00:09:02;;;;;;;2.90;2.00;;;;;;;-1.07;90.92;98924.99;105486;1258;61636;-26
2023/04/05 00:11:31;;;;;;;5.80;1.50;;;;;;;-1.24;91.11;98924.19;105396;1260;73541;-26
2023/04/05 00:14:00;;;;;;;3.40;1.90;;;;;;;-1.25;91.37;98924.92;105408;1260;74595;-26
2023/04/05 00:16:30;;;;;;;2.00;1.30;;;;;;;-1.15;91.36;98921.84;105419;1264;74176;-26
2023/04/05 00:18:59;;;;;;;2.50;1.80;;;;;;;-1.07;90.69;98923.45;105600;1260;61892;-26
2023/04/05 00:21:28;;;;;;;1.90;1.40;;;;;;;-1.08;90.55;98919.56;105526;1262;61664;-26
2023/04/05 00:23:58;;;;;;;2.70;2.10;;;;;;;-1.16;91.02;98918.31;105234;1259;74570;-26
2023/04/05 00:26:26;;;;;;;2.30;2.10;;;;;;;-1.42;91.92;98911.20;105464;1261;74687;-26
2023/04/05 00:28:57;;;;;;;2.10;1.70;;;;;;;-1.30;91.86;98906.71;105530;1260;73454;-26
2023/04/05 00:31:28;;;;;;;3.40;2.30;;;;;;;-1.08;91.15;98900.46;105508;1259;61042;-25
2023/04/05 00:33:56;;;;;;;7.60;4.30;;;;;;;-1.26;91.41;98893.27;105544;1262;61813;-25
2023/04/05 00:36:25;;;;;;;3.20;2.40;;;;;;;-1.19;91.24;98888.77;105097;1259;74484;-25
2023/04/05 00:38:54;;;;;;;3.10;2.40;;;;;;;-1.36;91.66;98889.02;105444;1262;75857;-25
2023/04/05 00:41:24;;;;;;;3.30;2.50;;;;;;;-1.18;91.46;98887.02;105600;1256;73244;-25
2023/04/05 00:43:53;;;;;;;3.30;2.60;;;;;;;-1.06;90.87;98885.75;105242;1262;61923;-25
2023/04/05 00:46:35;;;;;;;3.00;2.10;;;;;;;-1.20;90.47;98884.72;105326;1261;61580;-25
2023/04/05 00:49:03;;;;;;;4.10;2.60;;;;;;;-1.37;91.44;98884.48;105270;1265;73195;-25
2023/04/05 00:51:32;;;;;;;4.20;2.10;;;;;;;-1.48;92.18;98877.36;105468;1257;74710;-29
2023/04/05 00:54:01;;;;;;;3.70;2.30;;;;;;;-1.22;91.70;98873.02;105568;1259;74085;-25
2023/04/05 00:56:30;;;;;;;2.60;1.90;;;;;;;-1.10;90.21;98867.66;105209;1259;61174;-25
2023/04/05 00:59:03;;;;;;;6.70;3.90;;;;;;;-1.14;90.22;98860.63;105257;1260;61669;-25
2023/04/05 01:01:33;;;;;;;4.30;3.20;;;;;;;-1.27;90.76;98857.85;105282;1258;75084;-25
2023/04/05 01:04:02;;;;;;;4.90;3.00;;;;;;;-1.47;91.65;98853.97;105291;1262;74864;-25
2023/04/05 01:06:54;;;;;;;4.60;2.90;;;;;;;-1.34;91.23;98853.02;105393;1259;74134;-25
2023/04/05 01:09:56;;;;;;;4.10;2.60;;;;;;;-1.27;90.78;98846.61;105293;1260;61624;-25
2023/04/05 01:12:27;;;;;;;5.60;3.30;;;;;;;-1.33;91.08;98854.70;105247;1260;61065;-25
2023/04/05 01:14:56;;;;;;;4.30;3.10;;;;;;;-1.47;91.61;98853.81;105295;1259;75346;-25
2023/04/05 01:17:32;;;;;;;2.00;1.30;;;;;;;-1.46;92.01;98855.66;105607;1262;75319;-25
2023/04/05 01:20:09;;;;;;;3.30;2.30;;;;;;;-1.35;91.68;98858.14;105455;1262;73034;-25
2023/04/05 01:23:01;;;;;;;2.60;1.90;;;;;;;-1.18;90.63;98854.48;105456;1260;61067;-25
2023/04/05 01:25:55;;;;;;;3.10;2.50;;;;;;;-1.35;90.72;98858.65;105498;1262;61757;-25
2023/04/05 01:28:33;;;;;;;;;;;;;;;-1.55;92.12;98858.52;105454;1260;74330;-25
2023/04/05 01:31:08;;;;;;;2.30;1.80;;;;;;;-1.46;92.52;98861.95;105396;1260;75923;-25
2023/04/05 01:33:56;;;;;;;3.10;2.10;;;;;;;-1.19;91.39;98860.65;105321;1260;73260;-24
2023/04/05 01:36:39;;;;;;;3.30;2.50;;;;;;;-1.24;90.47;98858.09;105329;1260;61180;-24
2023/04/05 01:39:07;;;;;;;3.20;2.40;;;;;;;-1.41;91.39;98854.61;105292;1260;61152;-25
2023/04/05 01:41:39;;;;;;;5.20;2.10;;;;;;;-1.60;92.47;98851.71;105545;1258;73356;-25
2023/04/05 01:44:09;;;;;;;3.60;1.90;;;;;;;-1.42;92.00;98851.09;105314;1261;75940;-24
2023/04/05 01:46:38;;;;;;;2.40;1.80;;;;;;;-1.19;91.00;98853.34;105346;1260;73129;-24
2023/04/05 01:49:07;;;;;;;3.60;2.30;;;;;;;-1.30;90.94;98854.57;105633;1262;61168;-24
2023/04/05 01:51:40;;;;;;;2.90;2.10;;;;;;;-1.31;90.83;98854.96;105577;1261;61756;-24
2023/04/05 01:54:09;;;;;;;2.40;2.00;;;;;;;-1.49;91.31;98856.60;105495;1262;74204;-25
2023/04/05 01:56:38;;;;;;;2.60;2.10;;;;;;;-1.34;91.45;98860.67;105535;1262;75937;-24
2023/04/05 01:59:07;;;;;;;3.50;2.40;;;;;;;-1.24;90.84;98855.38;105414;1262;74179;-24
2023/04/05 02:01:36;;;;;;;6.60;3.00;;;;;;;-1.27;90.47;98855.65;105505;1257;61119;-24
2023/04/05 02:04:06;;;;;;;3.60;2.30;;;;;;;-1.31;90.78;98854.10;105551;1262;61713;-24
2023/04/05 02:06:38;;;;;;;3.30;2.10;;;;;;;-1.61;91.64;98847.16;105591;1260;75911;-24
2023/04/05 02:09:08;;;;;;;2.60;2.00;;;;;;;-1.49;91.77;98845.87;105559;1262;75811;-25
2023/04/05 02:11:36;;;;;;;2.70;2.20;;;;;;;-1.14;90.51;98845.15;105388;1262;74086;-24
2023/04/05 02:14:07;;;;;;;2.20;1.90;;;;;;;-1.17;89.97;98844.05;105306;1257;61136;-24
2023/04/05 02:16:36;;;;;;;4.50;3.10;;;;;;;-1.43;90.39;98842.09;105599;1262;61884;-24
2023/04/05 02:19:05;;;;;;;1.90;1.70;;;;;;;-1.46;91.20;98846.44;105600;1259;75676;-25
2023/04/05 02:21:36;;;;;;;3.60;2.30;;;;;;;-1.40;90.38;98844.70;105398;1260;75813;-24
2023/04/05 02:24:05;;;;;;;2.80;2.50;;;;;;;-1.32;90.00;98841.55;105599;1262;74300;-24
2023/04/05 02:26:34;;;;;;;3.50;1.60;;;;;;;-1.42;90.20;98836.08;105403;1263;61082;-25
2023/04/05 02:29:03;;;;;;;2.70;2.40;;;;;;;-1.49;90.41;98832.08;105624;1257;61755;-24
2023/04/05 02:31:32;;;;;;;2.70;2.50;;;;;;;-1.64;91.17;98825.46;105603;1257;75550;-29
2023/04/05 02:34:01;;;;;;;2.00;1.80;;;;;;;-1.50;90.86;98829.41;105593;1263;75959;-24
2023/04/05 02:44:12;;;;;;;3.40;2.90;;;;;;;-1.69;91.59;98833.45;103061;1286;599881;-25
2023/04/05 02:46:40;;;;;;;2.50;1.80;;;;;;;-1.47;91.08;98836.26;105362;1265;61186;-25
2023/04/05 02:49:09;;;;;;;2.70;1.80;;;;;;;-1.23;89.89;98841.02;105605;1255;61653;-25
2023/04/05 02:51:38;;;;;;;2.80;2.00;;;;;;;-1.49;90.02;98844.67;105659;1259;73795;-25
2023/04/05 02:54:09;;;;;;;3.20;2.10;;;;;;;-1.41;89.74;98842.02;105673;1260;76029;-25
2023/04/05 02:56:39;;;;;;;3.70;2.00;;;;;;;-1.63;90.94;98843.30;104145;1260;2143555;-25
2023/04/05 02:59:12;;;;;;;2.70;2.00;;;;;;;-1.39;90.04;98839.56;105701;1257;61217;-25
2023/04/05 03:01:43;;;;;;;3.70;2.60;;;;;;;-1.35;89.35;98840.61;105820;1257;61730;-25
2023/04/05 03:04:19;;;;;;;2.40;1.90;;;;;;;-1.52;90.22;98834.39;105981;1256;73775;-25
2023/04/05 03:06:51;;;;;;;4.30;3.10;;;;;;;-1.68;90.48;98825.77;105985;1257;75907;-25
2023/04/05 03:09:21;;;;;;;4.70;2.50;;;;;;;-1.80;91.33;98822.41;105881;1257;72139;-25
2023/04/05 03:11:52;;;;;;;2.70;2.10;;;;;;;-1.51;90.74;98817.33;105844;1255;61100;-25
2023/04/05 03:14:25;;;;;;;5.30;2.20;;;;;;;-1.42;89.83;98819.39;105826;1256;61593;-25
2023/04/05 03:16:54;;;;;;;2.40;1.70;;;;;;;-1.47;89.50;98818.73;105916;1257;74653;-25
2023/04/05 03:19:31;;;;;;;4.00;2.80;;;;;;;-1.65;90.42;98814.94;105786;1256;75653;-26
2023/04/05 03:22:11;;;;;;;5.20;2.10;;;;;;;-1.88;91.57;98809.61;105686;1254;73953;-25
2023/04/05 03:24:41;;;;;;;4.00;2.30;;;;;;;-1.48;90.42;98818.10;105688;1252;61113;-25
2023/04/05 03:27:13;;;;;;;3.40;2.20;;;;;;;-1.41;89.50;98817.83;105656;1254;61605;-25
2023/04/05 03:29:57;;;;;;;6.30;3.00;;;;;;;-1.45;89.04;98819.00;105719;1256;74505;-26
2023/04/05 03:32:25;;;;;;;5.40;2.20;;;;;;;-1.75;90.28;98812.58;105906;1257;75784;-25
2023/04/05 03:35:03;;;;;;;3.40;2.60;;;;;;;-1.73;90.63;98811.13;105810;1254;74322;-25
2023/04/05 03:37:33;;;;;;;4.90;3.10;;;;;;;-1.47;89.85;98806.98;105860;1256;61032;-25
2023/04/05 03:40:09;;;;;;;4.70;3.40;;;;;;;-1.60;89.48;98810.17;105867;1254;62127;-25
2023/04/05 03:42:38;;;;;;;4.70;3.30;;;;;;;-1.71;90.24;98808.84;105838;1255;74567;-25
2023/04/05 03:45:08;;;;;;;4.70;3.60;;;;;;;-1.72;90.35;98809.88;105762;1259;75833;-25
2023/04/05 03:47:38;;;;;;;2.20;1.90;;;;;;;-1.85;90.92;98807.63;105652;1257;74234;-25
2023/04/05 03:50:08;;;;;;;4.10;2.50;;;;;;;-1.59;90.30;98813.87;105906;1254;61014;-25
2023/04/05 03:52:36;;;;;;;3.80;2.80;;;;;;;-1.39;89.39;98811.11;105550;1257;61167;-25
2023/04/05 03:55:06;;;;;;;3.60;2.80;;;;;;;-1.58;89.64;98810.09;105864;1256;74400;-25
2023/04/05 03:57:36;;;;;;;3.00;1.90;;;;;;;-1.69;90.33;98805.37;105687;1260;74991;-25
2023/04/05 04:00:16;;;;;;;3.20;2.80;;;;;;;-1.67;90.50;98809.05;105682;1254;73989;-25
2023/04/05 04:03:05;;;;;;;3.70;2.50;;;;;;;-1.43;89.73;98811.93;105818;1257;61159;-25
2023/04/05 04:05:37;;;;;;;3.70;2.80;;;;;;;-1.24;88.47;98820.11;105596;1257;61854;-25
2023/04/05 04:08:08;;;;;;;4.40;2.60;;;;;;;-1.41;88.62;98821.09;105483;1258;74612;-25
2023/04/05 04:10:38;;;;;;;6.20;3.20;;;;;;;-1.52;89.13;98820.79;105691;1257;76241;-25
2023/04/05 04:13:18;;;;;;;5.00;3.50;;;;;;;-1.68;90.06;98819.97;105603;1255;74246;-25
2023/04/05 04:15:53;;;;;;;3.70;2.10;;;;;;;-1.35;89.33;98819.69;105878;1254;60985;-25
2023/04/05 04:18:35;;;;;;;4.10;2.50;;;;;;;-1.21;87.89;98813.55;105602;1263;61875;-25
2023/04/05 04:21:27;;;;;;;3.60;2.60;;;;;;;-1.42;88.10;98815.13;105773;1256;73525;-25
2023/04/05 04:24:17;;;;;;;3.20;2.30;;;;;;;-1.56;89.20;98808.67;105528;1256;75847;-25
2023/04/05 04:26:53;;;;;;;3.60;2.80;;;;;;;-1.47;89.50;98816.33;105532;1259;73240;-25
2023/04/05 04:29:37;;;;;;;3.10;2.60;;;;;;;-1.17;88.36;98815.96;105713;1256;61157;-25
2023/04/05 04:32:56;;;;;;;3.70;2.60;;;;;;;-1.06;87.39;98812.83;105540;1258;61810;-25
2023/04/05 04:35:37;;;;;;;4.30;2.70;;;;;;;-1.35;87.89;98805.70;105564;1257;74582;-25
2023/04/05 04:38:26;;;;;;;2.30;2.00;;;;;;;-1.45;89.03;98801.47;105687;1259;75745;-24
2023/04/05 04:41:32;;;;;;;5.20;3.00;;;;;;;-1.43;89.25;98802.94;105370;1263;74174;-24
2023/04/05 04:44:27;;;;;;;5.80;4.20;;;;;;;-1.02;87.89;98808.58;105742;1254;61093;-24
2023/04/05 04:47:21;;;;;;;4.10;3.20;;;;;;;-1.26;87.51;98807.07;105649;1257;61608;-24
2023/04/05 04:50:12;;;;;;;8.20;4.80;;;;;;;-1.32;88.34;98808.32;105751;1260;74441;-24
2023/04/05 04:52:41;;;;;;;7.30;4.70;;;;;;;-1.36;88.06;98813.06;105787;1255;75772;-24
2023/04/05 04:55:14;;;;;;;4.40;3.00;;;;;;;-1.35;88.31;98817.98;105872;1254;74182;-24
2023/04/05 04:57:46;;;;;;;2.40;2.10;;;;;;;-1.07;87.72;98823.77;105802;1254;61090;-26
2023/04/05 05:00:15;;;;;;;4.10;2.60;;;;;;;-0.90;86.32;98828.07;105771;1257;61868;-25
2023/04/05 05:02:48;;;;;;;3.90;3.20;;;;;;;-1.23;87.15;98821.79;105573;1259;74429;-24
2023/04/05 05:05:21;;;;;;;6.50;4.20;;;;;;;-1.29;87.87;98819.79;105750;1255;75915;-24
2023/04/05 05:07:51;;;;;;;4.30;3.50;;;;;;;-1.18;88.16;98819.38;105677;1255;73058;-24
2023/04/05 05:10:20;;;;;;;5.10;3.70;;;;;;;-1.12;87.45;98816.43;105682;1256;61168;-24
2023/04/05 05:12:50;;;;;;;4.00;2.70;;;;;;;-0.93;86.99;98809.96;105906;1255;61940;-24
2023/04/05 05:15:19;;;;;;;4.10;3.40;;;;;;;-0.96;87.00;98810.91;105733;1254;75040;-24
2023/04/05 05:17:51;;;;;;;3.10;2.20;;;;;;;-1.21;87.38;98812.84;105910;1256;75876;-24
2023/04/05 05:20:21;;;;;;;3.60;2.90;;;;;;;-1.28;88.11;98816.72;105845;1255;74074;-24
2023/04/05 05:22:50;;;;;;;3.40;2.60;;;;;;;-1.01;87.64;98817.08;105781;1257;62127;-24
2023/04/05 05:25:19;;;;;;;4.20;3.00;;;;;;;-0.85;86.48;98819.02;105707;1258;62037;-24
2023/04/05 05:27:49;;;;;;;4.00;3.00;;;;;;;-0.94;86.71;98823.11;105754;1254;74057;-24
2023/04/05 05:30:19;;;;;;;3.90;3.10;;;;;;;-1.14;87.06;98819.43;105657;1257;74572;-24
2023/04/05 05:32:48;;;;;;;3.30;2.70;;;;;;;-1.25;87.78;98823.56;105818;1254;74023;-25
2023/04/05 05:35:17;;;;;;;4.90;2.90;;;;;;;-1.25;87.77;98823.90;105897;1254;62691;-24
2023/04/05 05:37:46;;;;;;;3.50;3.10;;;;;;;-1.19;87.39;98820.27;105772;1254;61167;-24
2023/04/05 05:40:15;;;;;;;2.90;2.30;;;;;;;-1.16;86.96;98819.14;105921;1254;74547;-24
2023/04/05 05:42:44;;;;;;;3.50;2.90;;;;;;;-1.19;87.09;98815.52;105881;1254;74933;-24
2023/04/05 05:45:12;;;;;;;3.90;2.90;;;;;;;-1.13;87.25;98818.52;105928;1256;72354;-24
2023/04/05 05:47:42;;;;;;;3.20;2.50;;;;;;;-1.33;87.50;98813.45;105731;1255;61094;-24
2023/04/05 05:50:10;;;;;;;3.10;2.70;;;;;;;-1.05;87.53;98813.96;105893;1258;61564;-24
2023/04/05 05:52:39;;;;;;;4.00;2.50;;;;;;;-0.79;86.22;98816.77;105893;1255;74545;-24
2023/04/05 05:55:08;;;;;;;5.20;3.40;;;;;;;-0.85;85.65;98815.26;105901;1254;75775;-24
2023/04/05 05:57:37;;;;;;;4.80;3.20;;;;;;;-0.95;85.98;98809.34;105680;1257;74246;-24
2023/04/05 06:00:10;;;;;;;4.50;3.60;;;;;;;-0.95;86.12;98806.95;105924;1254;61055;-24
2023/04/05 06:02:45;;;;;;;4.00;2.90;;;;;;;-1.13;86.94;98813.42;105732;1258;61893;-24
2023/04/05 06:05:14;;;;;;;4.70;3.20;;;;;;;-0.71;86.17;98813.90;105938;1253;74658;-24
2023/04/05 06:07:43;;;;;;;7.80;3.80;;;;;;;-0.79;85.22;98809.95;105897;1256;74453;-24
2023/04/05 06:10:14;;;;;;;8.90;4.60;;;;;;;-0.88;85.79;98812.83;105643;1254;74211;-24
2023/04/05 06:12:43;;;;;;;9.60;4.80;;;;;;;-0.88;85.97;98818.11;105520;1259;61198;-24
2023/04/05 06:15:11;;;;;;;7.10;3.10;;;;;;;-0.92;85.85;98819.28;105787;1256;61767;-24
2023/04/05 06:17:41;;;;;;;7.00;4.00;;;;;;;-0.83;85.54;98818.92;105697;1254;74294;-24
2023/04/05 06:20:10;;;;;;;10.00;5.30;;;;;;;-0.54;84.64;98819.20;105744;1254;75786;-24
2023/04/05 06:22:48;;;;;;;5.20;3.50;;;;;;;-0.67;84.35;98820.52;105801;1254;73899;-26
2023/04/05 06:25:17;;;;;;;9.40;5.90;;;;;;;-0.80;85.53;98818.83;105666;1255;61036;-24
2023/04/05 06:27:46;;;;;;;12.00;6.50;;;;;;;-0.72;85.72;98816.34;105865;1255;61825;-24
2023/04/05 06:30:14;;;;;;;6.70;4.50;;;;;;;-0.74;85.74;98814.88;105919;1254;74580;-24
2023/04/05 06:32:43;;;;;;;5.70;4.00;;;;;;;-0.55;85.48;98817.00;105932;1255;75574;-23
2023/04/05 06:35:12;;;;;;;8.30;4.50;;;;;;;-0.23;84.25;98813.70;105933;1256;74247;-23
2023/04/05 06:37:44;;;;;;;3.60;3.20;;;;;;;-0.37;83.74;98808.11;105844;1257;61058;-24
2023/04/05 06:40:13;;;;;;;5.40;4.00;;;;;;;-0.54;84.67;98813.22;105835;1254;61023;-24
2023/04/05 06:42:43;;;;;;;4.80;3.60;;;;;;;-0.66;84.99;98814.05;105853;1257;74481;-24
2023/04/05 06:45:12;;;;;;;4.10;2.80;;;;;;;-0.47;85.34;98813.63;105894;1258;75931;-24
2023/04/05 06:47:41;;;;;;;4.60;2.90;;;;;;;-0.25;83.95;98809.16;105925;1256;72711;-25
2023/04/05 06:50:10;;;;;;;5.00;2.70;;;;;;;-0.04;82.97;98806.09;105917;1256;61882;-26
2023/04/05 06:52:38;;;;;;;5.70;3.40;;;;;;;-0.07;83.15;98797.35;105756;1257;61040;-27
2023/04/05 06:55:07;;;;;;;5.00;3.20;;;;;;;-0.04;83.61;98801.15;105917;1255;73840;-24
2023/04/05 06:57:35;;;;;;;5.00;3.10;;;;;;;-0.16;83.60;98800.78;105801;1254;75628;-25
2023/04/05 07:00:10;;;;;;;5.80;3.30;;;;;;;-0.35;84.31;98800.36;105558;1257;74276;-25
2023/04/05 07:02:40;;;;;;;;;;;;;;;0.08;82.93;98799.13;105674;1254;62644;-25
2023/04/05 07:05:09;;;;;;;4.30;3.00;;;;;;;0.10;82.16;98801.60;105857;1257;61556;-25
2023/04/05 07:07:39;;;;;;;6.30;3.50;;;;;;;-0.18;82.98;98798.14;105636;1260;74077;-24
2023/04/05 07:10:08;;;;;;;3.30;2.80;;;;;;;-0.25;83.87;98794.00;105711;1257;75656;-25
2023/04/05 07:12:38;;;;;;;5.10;3.70;;;;;;;-0.51;84.68;98794.67;105886;1256;72157;-25
2023/04/05 07:15:14;;;;;;;5.50;3.90;;;;;;;-0.44;84.95;98791.18;105590;1254;62507;-25
2023/04/05 07:17:43;;;;;;;4.80;3.10;;;;;;;-0.17;83.90;98791.43;105781;1257;61909;-25
2023/04/05 07:20:13;;;;;;;5.20;3.60;;;;;;;0.14;82.16;98790.83;105612;1253;75023;-31
2023/04/05 07:22:42;;;;;;;6.80;3.90;;;;;;;-0.10;83.13;98785.50;105669;1257;75823;-27
2023/04/05 07:25:11;;;;;;;4.60;2.90;;;;;;;-0.33;84.19;98790.04;105924;1257;74208;-23
2023/04/05 07:27:39;;;;;;;4.10;3.20;;;;;;;-0.19;84.56;98795.45;105951;1256;61160;-24
2023/04/05 07:30:09;;;;;;;7.10;4.40;;;;;;;-0.19;84.17;98791.85;105886;1257;61162;-23
2023/04/05 07:32:38;;;;;;;6.30;4.00;;;;;;;0.14;83.44;98796.61;105728;1257;75118;-22
2023/04/05 07:35:07;;;;;;;5.40;3.70;;;;;;;0.22;82.61;98796.62;105869;1254;76008;-23
2023/04/05 07:37:37;;;;;;;4.20;2.80;;;;;;;0.15;83.22;98797.10;105883;1256;74184;-23
2023/04/05 07:40:06;;;;;;;6.80;3.70;;;;;;;0.42;82.33;98793.03;105724;1254;61109;-24
2023/04/05 07:42:36;;;;;;;5.50;4.00;;;;;;;0.35;82.22;98793.20;105722;1260;61615;-23
2023/04/05 07:45:05;;;;;;;3.60;2.80;;;;;;;0.40;82.49;98797.73;105934;1254;75243;-24
2023/04/05 07:47:34;;;;;;;5.00;3.70;;;;;;;0.27;82.93;98798.83;105634;1260;74684;-23
2023/04/05 07:50:05;;;;;;;5.60;3.70;;;;;;;0.57;81.53;98803.51;105532;1253;72901;-22
2023/04/05 07:52:34;;;;;;;8.00;5.30;;;;;;;0.77;80.77;98809.45;105639;1259;61664;-21
2023/04/05 07:55:03;;;;;;;6.30;3.70;;;;;;;0.73;80.27;98811.66;105864;1257;61874;-21
2023/04/05 07:57:32;;;;;;;6.00;3.80;;;;;;;0.45;81.29;98809.50;105735;1254;75031;-21
2023/04/05 08:00:03;;;;;;;10.00;6.10;;;;;;;0.13;82.24;98810.86;105954;1254;75641;-20
2023/04/05 08:02:47;;;;;;;6.00;2.70;;;;;;;0.09;83.46;98814.61;105731;1257;74241;-22
2023/04/05 08:05:16;;;;;;;8.40;4.50;;;;;;;0.23;82.96;98809.91;105629;1254;61158;-23
2023/04/05 08:07:45;;;;;;;5.00;2.80;;;;;;;0.44;81.52;98814.30;105799;1257;61147;-20
2023/04/05 08:10:17;;;;;;;4.50;3.90;;;;;;;0.23;82.58;98814.88;105743;1254;75197;-23
2023/04/05 08:12:47;;;;;;;6.40;4.50;;;;;;;0.24;82.60;98813.80;105619;1253;76395;-22
2023/04/05 08:15:16;;;;;;;10.20;7.00;;;;;;;0.18;82.80;98810.62;105552;1257;74234;-22
2023/04/05 08:17:46;;;;;;;16.40;8.20;;;;;;;0.22;82.70;98810.80;105574;1252;61025;-22
2023/04/05 08:20:14;;;;;;;7.80;4.70;;;;;;;0.39;82.16;98804.61;105938;1254;61802;-21
2023/04/05 08:22:43;;;;;;;5.30;3.70;;;;;;;0.73;81.12;98807.61;105561;1257;73992;-21
2023/04/05 08:25:11;;;;;;;5.30;3.60;;;;;;;0.81;80.95;98804.81;105506;1257;75904;-21
2023/04/05 08:27:40;;;;;;;5.00;3.50;;;;;;;0.64;80.46;98803.36;105688;1254;74234;-21
2023/04/05 08:30:10;;;;;;;5.80;4.20;;;;;;;0.58;81.60;98800.38;105894;1254;61017;-22
2023/04/05 08:32:39;;;;;;;6.90;4.30;;;;;;;0.54;81.72;98801.94;105719;1254;61496;-21
2023/04/05 08:35:08;;;;;;;12.60;3.30;;;;;;;0.61;82.06;98801.77;105783;1254;75380;-22
2023/04/05 08:37:37;;;;;;;5.00;3.80;;;;;;;1.03;80.41;98802.96;105593;1254;76169;-22
2023/04/05 08:40:07;;;;;;;5.70;4.00;;;;;;;0.94;79.71;98799.63;105814;1254;74053;-23
2023/04/05 08:42:41;;;;;;;3.90;3.20;;;;;;;0.74;80.26;98801.55;105666;1254;61999;-23
2023/04/05 08:45:10;;;;;;;;;;;;;;;0.67;80.63;98801.50;105724;1258;61808;-22
2023/04/05 08:47:40;;;;;;;5.20;3.60;;;;;;;0.74;80.88;98802.77;105630;1254;75144;-22
2023/04/05 08:50:12;;;;;;;5.10;3.70;;;;;;;0.54;81.15;98795.23;105724;1254;74767;-22
2023/04/05 08:52:42;;;;;;;3.30;2.70;;;;;;;0.45;81.88;98797.02;105706;1254;74245;-22
2023/04/05 08:55:11;;;;;;;4.40;3.40;;;;;;;0.53;82.18;98796.17;105755;1254;61229;-22
2023/04/05 08:57:39;;;;;;;5.20;3.40;;;;;;;0.89;81.22;98799.34;105672;1257;61662;-23
2023/04/05 09:00:09;;;;;;;4.10;3.10;;;;;;;0.94;81.10;98793.83;105704;1254;75167;-23
2023/04/05 09:02:39;;;;;;;5.70;3.90;;;;;;;0.74;81.82;98787.56;105631;1260;75845;-23
2023/04/05 09:05:09;;;;;;;5.90;3.60;;;;;;;0.49;82.25;98790.85;105556;1254;72905;-23
2023/04/05 09:07:38;;;;;;;5.20;3.10;;;;;;;0.37;83.04;98785.94;105667;1254;61221;-23
2023/04/05 09:10:07;;;;;;;5.60;3.70;;;;;;;0.66;82.16;98782.93;105715;1253;61307;-23
2023/04/05 09:12:37;;;;;;;3.80;3.10;;;;;;;0.67;82.09;98784.09;105937;1254;74202;-23
2023/04/05 09:15:06;;;;;;;4.50;3.10;;;;;;;0.81;82.00;98778.52;105700;1254;75685;-23
2023/04/05 09:17:38;;;;;;;4.60;3.20;;;;;;;0.47;82.15;98777.45;105623;1259;73020;-23
2023/04/05 09:20:07;;;;;;;4.10;2.90;;;;;;;0.56;82.80;98774.83;105606;1254;61094;-23
2023/04/05 09:22:45;;;;;;;4.50;3.40;;;;;;;0.54;82.66;98775.42;105684;1254;61105;-22
2023/04/05 09:25:38;;;;;;;3.60;3.10;;;;;;;0.69;82.61;98774.95;105666;1254;75244;-23
2023/04/05 09:28:07;;;;;;;3.50;2.70;;;;;;;1.02;81.89;98777.06;105686;1254;75842;-22
2023/04/05 09:30:36;;;;;;;3.60;2.40;;;;;;;0.78;82.07;98774.20;105625;1259;74101;-22
2023/04/05 09:33:09;;;;;;;3.40;2.90;;;;;;;0.82;82.27;98772.83;105719;1254;61151;-22
2023/04/05 09:35:37;;;;;;;3.90;2.70;;;;;;;0.63;83.06;98771.77;105717;1253;61079;-22
2023/04/05 09:38:07;;;;;;;5.00;3.10;;;;;;;0.54;83.91;98775.29;105589;1254;75371;-22
2023/04/05 09:40:44;;;;;;;4.80;2.70;;;;;;;0.77;83.28;98775.25;105638;1257;74307;-22
2023/04/05 09:43:36;;;;;;;5.30;3.20;;;;;;;1.04;81.82;98775.90;105530;1254;73744;-23
2023/04/05 09:46:05;;;;;;;4.80;3.30;;;;;;;1.22;81.28;98775.10;105868;1254;61867;-22
2023/04/05 09:48:46;;;;;;;3.20;2.50;;;;;;;0.84;81.61;98770.69;105589;1259;61113;-22
2023/04/05 09:51:15;;;;;;;3.30;2.60;;;;;;;0.67;82.90;98774.70;105612;1254;74057;-23
2023/04/05 09:54:01;;;;;;;4.60;2.70;;;;;;;0.59;83.82;98769.90;105687;1254;75745;-23
2023/04/05 09:56:33;;;;;;;4.70;2.40;;;;;;;0.78;83.10;98776.59;105706;1254;72970;-23
2023/04/05 09:59:09;;;;;;;3.50;2.20;;;;;;;0.89;83.26;98781.76;105607;1254;61353;-23
2023/04/05 10:01:42;;;;;;;6.40;4.20;;;;;;;1.16;82.56;98780.48;105544;1253;61852;-22
2023/04/05 10:04:12;;;;;;;3.30;2.50;;;;;;;0.95;82.45;98779.23;105534;1254;75535;-22
2023/04/05 10:06:41;;;;;;;5.90;3.00;;;;;;;0.59;84.23;98783.10;105717;1254;75832;-22
2023/04/05 10:09:14;;;;;;;4.50;2.70;;;;;;;0.65;84.44;98791.38;105768;1254;74095;-22
2023/04/05 10:11:43;;;;;;;7.80;3.90;;;;;;;1.03;83.52;98790.01;105897;1256;61359;-22
2023/04/05 10:14:12;;;;;;;3.50;2.20;;;;;;;0.87;83.08;98796.02;105696;1257;61879;-23
2023/04/05 10:16:46;;;;;;;3.90;2.50;;;;;;;0.67;84.77;98800.33;105759;1253;75106;-22
2023/04/05 10:21:39;;;;;;;21.90;9.60;;;;;;;0.55;86.30;98803.41;102923;1292;601012;-23
2023/04/05 10:24:21;;;;;;;3.20;2.40;;;;;;;0.70;85.80;98798.98;104852;1266;61812;-24
2023/04/05 10:27:36;;;;;;;5.80;3.40;;;;;;;0.67;85.43;98796.23;104845;1267;61837;-24
2023/04/05 10:30:07;;;;;;;10.40;6.00;;;;;;;0.59;86.31;98795.20;104842;1272;73761;-21
2023/04/05 10:32:47;;;;;;;3.40;2.30;;;;;;;0.56;87.38;98794.14;104860;1267;75825;-23
2023/04/05 10:35:16;;;;;;;3.00;2.40;;;;;;;0.63;88.09;98795.20;103124;1263;2470651;-24
2023/04/05 10:38:09;;;;;;;3.30;1.90;;;;;;;0.90;86.80;98794.34;105248;1260;61167;-24
2023/04/05 10:40:38;;;;;;;3.80;2.50;;;;;;;0.65;87.32;98787.75;105260;1266;61104;-23
2023/04/05 10:43:08;;;;;;;4.70;2.70;;;;;;;0.35;88.40;98774.39;105561;1258;73599;-23
2023/04/05 10:45:37;;;;;;;3.10;2.30;;;;;;;0.06;89.93;98775.83;105495;1257;75715;-23
2023/04/05 10:48:45;;;;;;;2.90;2.50;;;;;;;0.05;90.56;98769.86;105301;1257;74385;-23
2023/04/05 10:51:16;;;;;;;4.60;2.80;;;;;;;0.35;90.16;98765.70;104998;1267;62234;-23
2023/04/05 10:53:45;;;;;;;3.90;2.90;;;;;;;0.20;90.92;98766.52;105384;1262;61460;-23
2023/04/05 10:56:19;;;;;;;3.30;2.70;;;;;;;0.15;91.58;98767.08;105551;1257;73937;-23
2023/04/05 10:58:48;;;;;;;4.30;2.60;;;;;;;0.05;92.22;98772.42;105261;1257;74887;-23
2023/04/05 11:01:17;;;;;;;3.40;2.20;;;;;;;0.32;92.10;98772.48;105563;1257;73826;-23
2023/04/05 11:03:54;;;;;;;2.30;1.60;;;;;;;0.37;91.25;98772.92;105429;1257;61713;-23
2023/04/05 11:06:29;;;;;;;4.50;2.90;;;;;;;0.41;91.05;98770.02;105605;1257;61191;-24
2023/04/05 11:09:21;;;;;;;3.10;2.50;;;;;;;0.14;91.68;98772.55;105476;1257;74507;-23
2023/04/05 11:11:51;;;;;;;2.80;2.50;;;;;;;0.03;92.99;98772.50;105593;1262;76236;-21
2023/04/05 11:14:35;;;;;;;4.20;2.20;;;;;;;0.25;92.20;98770.05;105434;1257;72312;-23
2023/04/05 11:17:23;;;;;;;2.70;2.30;;;;;;;0.21;91.82;98770.71;105431;1254;61099;-23
2023/04/05 11:20:03;;;;;;;2.90;2.40;;;;;;;0.15;92.33;98777.14;105484;1253;61167;-23
2023/04/05 11:22:32;;;;;;;4.20;2.30;;;;;;;0.02;93.03;98777.82;105617;1254;74455;-23
2023/04/05 11:25:01;;;;;;;6.50;2.80;;;;;;;0.21;93.07;98779.77;105772;1254;75543;-23
2023/04/05 11:27:33;;;;;;;4.60;2.70;;;;;;;0.34;92.00;98777.02;105655;1253;74086;-23
2023/04/05 11:30:08;;;;;;;6.00;3.50;;;;;;;0.35;91.46;98775.61;105488;1254;61656;-23
2023/04/05 11:32:42;;;;;;;5.10;3.10;;;;;;;0.17;92.28;98781.84;105428;1259;62152;-23
2023/04/05 11:35:22;;;;;;;5.20;2.80;;;;;;;0.06;92.86;98780.58;105824;1254;74478;-22
2023/04/05 11:38:00;;;;;;;3.80;2.40;;;;;;;0.26;92.48;98781.29;105604;1254;75802;-23
2023/04/05 11:40:36;;;;;;;2.50;2.10;;;;;;;0.35;91.81;98781.04;105495;1254;73092;-23
2023/04/05 11:43:08;;;;;;;2.30;1.80;;;;;;;0.30;92.42;98776.84;105495;1254;61138;-22
2023/04/05 11:45:38;;;;;;;5.00;3.20;;;;;;;0.28;92.41;98777.96;105525;1259;61829;-22
2023/04/05 11:48:13;;;;;;;1.90;1.50;;;;;;;0.09;93.12;98772.75;105665;1259;74474;-23
2023/04/05 11:50:41;;;;;;;4.60;2.30;;;;;;;0.65;91.78;98778.20;105719;1254;73651;-22
2023/04/05 11:53:12;;;;;;;3.40;2.50;;;;;;;0.59;90.56;98777.10;105883;1253;74087;-22
2023/04/05 11:55:50;;;;;;;2.10;1.70;;;;;;;0.25;92.01;98778.06;105567;1259;61099;-22
2023/04/05 11:58:21;;;;;;;3.40;2.90;;;;;;;0.10;92.66;98774.95;105585;1254;61134;-22
2023/04/05 12:01:06;;;;;;;3.30;2.40;;;;;;;-0.04;94.03;98771.30;105677;1260;74529;-22
2023/04/05 12:03:37;;;;;;;4.30;2.80;;;;;;;0.49;92.78;98770.86;105652;1254;75820;-21
2023/04/05 12:06:09;;;;;;;3.60;2.00;;;;;;;0.48;91.47;98763.93;105867;1259;72579;-22